sensor_id;sensor_type;location;lat;lon;timestamp;P1;durP1;ratioP1;P2;durP2;ratioP2
44987;SDS011;35735;52.226;21.254;2024-02-14T00:04:34;17.48;;;8.07;;
44987;SDS011;35735;52.226;21.254;2024-02-14T00:09:36;14.97;;;7.63;;
44987;SDS011;35735;52.226;21.254;2024-02-14T00:14:37;10.38;;;6.97;;
44987;SDS011;35735;52.226;21.254;2024-02-14T00:19:39;13.27;;;8.07;;
44987;SDS011;35735;52.226;21.254;2024-02-14T00:24:40;15.77;;;8.25;;
44987;SDS011;35735;52.226;21.254;2024-02-14T00:29:42;13.53;;;7.40;;
44987;SDS011;35735;52.226;21.254;2024-02-14T00:34:44;13.10;;;7.45;;
44987;SDS011;35735;52.226;21.254;2024-02-14T00:39:45;10.93;;;6.62;;
44987;SDS011;35735;52.226;21.254;2024-02-14T00:44:46;12.37;;;7.32;;
44987;SDS011;35735;52.226;21.254;2024-02-14T00:49:48;12.10;;;7.07;;
44987;SDS011;35735;52.226;21.254;2024-02-14T00:54:49;12.52;;;7.53;;
44987;SDS011;35735;52.226;21.254;2024-02-14T00:59:50;14.00;;;7.50;;
44987;SDS011;35735;52.226;21.254;2024-02-14T01:04:52;12.70;;;6.80;;
44987;SDS011;35735;52.226;21.254;2024-02-14T01:09:53;11.70;;;6.70;;
44987;SDS011;35735;52.226;21.254;2024-02-14T01:14:55;11.93;;;6.32;;
44987;SDS011;35735;52.226;21.254;2024-02-14T01:19:56;15.88;;;6.95;;
44987;SDS011;35735;52.226;21.254;2024-02-14T01:24:57;10.77;;;6.55;;
44987;SDS011;35735;52.226;21.254;2024-02-14T01:29:59;14.18;;;7.00;;
44987;SDS011;35735;52.226;21.254;2024-02-14T01:35:00;12.52;;;6.18;;
44987;SDS011;35735;52.226;21.254;2024-02-14T01:40:02;10.98;;;6.28;;
44987;SDS011;35735;52.226;21.254;2024-02-14T01:45:03;9.40;;;5.97;;
44987;SDS011;35735;52.226;21.254;2024-02-14T01:50:05;9.65;;;6.12;;
44987;SDS011;35735;52.226;21.254;2024-02-14T01:55:07;9.47;;;5.57;;
44987;SDS011;35735;52.226;21.254;2024-02-14T02:00:09;9.07;;;5.27;;
44987;SDS011;35735;52.226;21.254;2024-02-14T02:05:11;13.60;;;6.35;;
44987;SDS011;35735;52.226;21.254;2024-02-14T02:10:12;12.55;;;6.70;;
44987;SDS011;35735;52.226;21.254;2024-02-14T02:15:14;11.82;;;6.40;;
44987;SDS011;35735;52.226;21.254;2024-02-14T02:20:15;15.03;;;6.47;;
44987;SDS011;35735;52.226;21.254;2024-02-14T02:25:18;11.95;;;6.45;;
44987;SDS011;35735;52.226;21.254;2024-02-14T02:30:19;12.40;;;6.93;;
44987;SDS011;35735;52.226;21.254;2024-02-14T02:35:20;12.73;;;6.43;;
44987;SDS011;35735;52.226;21.254;2024-02-14T02:40:22;12.23;;;6.60;;
44987;SDS011;35735;52.226;21.254;2024-02-14T02:45:24;11.30;;;6.90;;
44987;SDS011;35735;52.226;21.254;2024-02-14T02:50:26;12.37;;;7.05;;
44987;SDS011;35735;52.226;21.254;2024-02-14T02:55:27;10.75;;;7.57;;
44987;SDS011;35735;52.226;21.254;2024-02-14T03:00:28;13.77;;;7.45;;
44987;SDS011;35735;52.226;21.254;2024-02-14T03:05:30;14.55;;;7.30;;
44987;SDS011;35735;52.226;21.254;2024-02-14T03:10:31;12.18;;;7.95;;
44987;SDS011;35735;52.226;21.254;2024-02-14T03:15:33;14.27;;;8.27;;
44987;SDS011;35735;52.226;21.254;2024-02-14T03:20:34;13.47;;;7.93;;
44987;SDS011;35735;52.226;21.254;2024-02-14T03:25:38;15.00;;;8.00;;
44987;SDS011;35735;52.226;21.254;2024-02-14T03:30:40;13.65;;;8.05;;
44987;SDS011;35735;52.226;21.254;2024-02-14T03:35:41;14.60;;;8.57;;
44987;SDS011;35735;52.226;21.254;2024-02-14T03:40:42;15.32;;;8.50;;
44987;SDS011;35735;52.226;21.254;2024-02-14T03:45:44;13.80;;;8.57;;
44987;SDS011;35735;52.226;21.254;2024-02-14T03:50:45;13.90;;;8.98;;
44987;SDS011;35735;52.226;21.254;2024-02-14T03:55:46;13.97;;;8.37;;
44987;SDS011;35735;52.226;21.254;2024-02-14T04:00:49;16.85;;;9.25;;
44987;SDS011;35735;52.226;21.254;2024-02-14T04:05:51;15.27;;;8.67;;
44987;SDS011;35735;52.226;21.254;2024-02-14T04:10:52;15.80;;;9.20;;
44987;SDS011;35735;52.226;21.254;2024-02-14T04:15:53;15.18;;;9.75;;
44987;SDS011;35735;52.226;21.254;2024-02-14T04:20:55;18.73;;;10.13;;
44987;SDS011;35735;52.226;21.254;2024-02-14T04:25:56;15.63;;;9.68;;
44987;SDS011;35735;52.226;21.254;2024-02-14T04:30:57;17.45;;;11.12;;
44987;SDS011;35735;52.226;21.254;2024-02-14T04:35:59;18.00;;;10.80;;
44987;SDS011;35735;52.226;21.254;2024-02-14T04:41:00;17.75;;;12.07;;
44987;SDS011;35735;52.226;21.254;2024-02-14T04:46:01;17.15;;;11.25;;
44987;SDS011;35735;52.226;21.254;2024-02-14T04:51:03;20.77;;;12.27;;
44987;SDS011;35735;52.226;21.254;2024-02-14T04:56:05;20.33;;;11.60;;
44987;SDS011;35735;52.226;21.254;2024-02-14T05:01:07;19.34;;;12.52;;
44987;SDS011;35735;52.226;21.254;2024-02-14T05:06:08;19.87;;;12.57;;
44987;SDS011;35735;52.226;21.254;2024-02-14T05:11:10;24.63;;;13.20;;
44987;SDS011;35735;52.226;21.254;2024-02-14T05:16:11;20.62;;;13.45;;
44987;SDS011;35735;52.226;21.254;2024-02-14T05:21:12;20.93;;;13.47;;
44987;SDS011;35735;52.226;21.254;2024-02-14T05:26:14;20.27;;;12.43;;
44987;SDS011;35735;52.226;21.254;2024-02-14T05:31:15;20.10;;;12.73;;
44987;SDS011;35735;52.226;21.254;2024-02-14T05:36:17;17.60;;;11.82;;
44987;SDS011;35735;52.226;21.254;2024-02-14T05:41:18;18.87;;;12.57;;
44987;SDS011;35735;52.226;21.254;2024-02-14T05:46:19;18.00;;;11.90;;
44987;SDS011;35735;52.226;21.254;2024-02-14T05:51:20;19.12;;;11.75;;
44987;SDS011;35735;52.226;21.254;2024-02-14T05:56:22;21.17;;;11.87;;
44987;SDS011;35735;52.226;21.254;2024-02-14T06:01:23;18.10;;;12.60;;
44987;SDS011;35735;52.226;21.254;2024-02-14T06:06:24;17.80;;;12.07;;
44987;SDS011;35735;52.226;21.254;2024-02-14T06:11:26;21.80;;;13.55;;
44987;SDS011;35735;52.226;21.254;2024-02-14T06:16:27;18.58;;;13.27;;
44987;SDS011;35735;52.226;21.254;2024-02-14T06:21:28;19.63;;;12.90;;
44987;SDS011;35735;52.226;21.254;2024-02-14T06:26:30;18.92;;;13.07;;
44987;SDS011;35735;52.226;21.254;2024-02-14T06:31:32;21.87;;;12.85;;
44987;SDS011;35735;52.226;21.254;2024-02-14T06:36:33;25.23;;;14.80;;
44987;SDS011;35735;52.226;21.254;2024-02-14T06:41:34;22.37;;;13.70;;
44987;SDS011;35735;52.226;21.254;2024-02-14T06:46:36;24.97;;;13.87;;
44987;SDS011;35735;52.226;21.254;2024-02-14T06:51:37;22.80;;;13.35;;
44987;SDS011;35735;52.226;21.254;2024-02-14T06:56:38;18.77;;;12.73;;
44987;SDS011;35735;52.226;21.254;2024-02-14T07:01:40;23.80;;;14.23;;
44987;SDS011;35735;52.226;21.254;2024-02-14T07:06:41;31.77;;;17.17;;
44987;SDS011;35735;52.226;21.254;2024-02-14T07:11:42;25.88;;;15.60;;
44987;SDS011;35735;52.226;21.254;2024-02-14T07:16:44;29.45;;;16.30;;
44987;SDS011;35735;52.226;21.254;2024-02-14T07:21:45;30.67;;;17.67;;
44987;SDS011;35735;52.226;21.254;2024-02-14T07:26:46;24.00;;;13.68;;
44987;SDS011;35735;52.226;21.254;2024-02-14T07:31:48;29.70;;;15.45;;
44987;SDS011;35735;52.226;21.254;2024-02-14T07:36:49;91.17;;;39.23;;
44987;SDS011;35735;52.226;21.254;2024-02-14T07:41:50;137.00;;;59.72;;
44987;SDS011;35735;52.226;21.254;2024-02-14T07:46:52;60.30;;;30.83;;
44987;SDS011;35735;52.226;21.254;2024-02-14T07:51:53;46.87;;;25.50;;
44987;SDS011;35735;52.226;21.254;2024-02-14T07:56:54;26.20;;;15.15;;
44987;SDS011;35735;52.226;21.254;2024-02-14T08:01:56;21.67;;;13.60;;
44987;SDS011;35735;52.226;21.254;2024-02-14T08:06:57;20.50;;;12.55;;
44987;SDS011;35735;52.226;21.254;2024-02-14T08:11:58;24.08;;;13.27;;
44987;SDS011;35735;52.226;21.254;2024-02-14T08:17:00;44.42;;;23.80;;
44987;SDS011;35735;52.226;21.254;2024-02-14T08:22:02;27.62;;;14.63;;
44987;SDS011;35735;52.226;21.254;2024-02-14T08:27:03;19.05;;;10.52;;
44987;SDS011;35735;52.226;21.254;2024-02-14T08:32:05;31.40;;;17.73;;
44987;SDS011;35735;52.226;21.254;2024-02-14T08:37:06;16.67;;;10.60;;
44987;SDS011;35735;52.226;21.254;2024-02-14T08:42:07;21.70;;;11.87;;
44987;SDS011;35735;52.226;21.254;2024-02-14T08:47:09;14.75;;;9.18;;
44987;SDS011;35735;52.226;21.254;2024-02-14T08:52:10;13.23;;;6.82;;
44987;SDS011;35735;52.226;21.254;2024-02-14T08:57:11;24.95;;;12.10;;
44987;SDS011;35735;52.226;21.254;2024-02-14T09:02:13;64.32;;;26.10;;
44987;SDS011;35735;52.226;21.254;2024-02-14T09:07:14;48.30;;;21.98;;
44987;SDS011;35735;52.226;21.254;2024-02-14T09:12:16;31.95;;;15.55;;
44987;SDS011;35735;52.226;21.254;2024-02-14T09:17:17;15.83;;;7.53;;
44987;SDS011;35735;52.226;21.254;2024-02-14T09:22:18;9.95;;;4.60;;
44987;SDS011;35735;52.226;21.254;2024-02-14T09:27:19;14.17;;;6.40;;
44987;SDS011;35735;52.226;21.254;2024-02-14T09:32:21;16.67;;;7.23;;
44987;SDS011;35735;52.226;21.254;2024-02-14T09:37:22;17.08;;;9.10;;
44987;SDS011;35735;52.226;21.254;2024-02-14T09:42:28;11.50;;;6.13;;
44987;SDS011;35735;52.226;21.254;2024-02-14T09:47:39;14.35;;;6.57;;
44987;SDS011;35735;52.226;21.254;2024-02-14T09:52:41;15.23;;;8.48;;
44987;SDS011;35735;52.226;21.254;2024-02-14T09:57:44;24.58;;;11.45;;
44987;SDS011;35735;52.226;21.254;2024-02-14T10:02:47;38.88;;;22.37;;
44987;SDS011;35735;52.226;21.254;2024-02-14T10:07:48;16.52;;;9.85;;
44987;SDS011;35735;52.226;21.254;2024-02-14T10:12:50;18.07;;;7.67;;
44987;SDS011;35735;52.226;21.254;2024-02-14T10:17:51;16.12;;;8.57;;
44987;SDS011;35735;52.226;21.254;2024-02-14T10:22:59;11.30;;;5.37;;
44987;SDS011;35735;52.226;21.254;2024-02-14T10:28:05;12.20;;;5.65;;
44987;SDS011;35735;52.226;21.254;2024-02-14T10:33:07;9.48;;;3.28;;
44987;SDS011;35735;52.226;21.254;2024-02-14T10:38:08;50.35;;;20.33;;
44987;SDS011;35735;52.226;21.254;2024-02-14T10:43:10;30.67;;;13.75;;
44987;SDS011;35735;52.226;21.254;2024-02-14T10:48:12;23.13;;;11.47;;
44987;SDS011;35735;52.226;21.254;2024-02-14T10:53:15;20.40;;;10.23;;
44987;SDS011;35735;52.226;21.254;2024-02-14T10:58:18;20.58;;;12.45;;
44987;SDS011;35735;52.226;21.254;2024-02-14T11:03:20;11.70;;;6.60;;
44987;SDS011;35735;52.226;21.254;2024-02-14T11:08:21;10.80;;;5.50;;
44987;SDS011;35735;52.226;21.254;2024-02-14T11:13:26;15.27;;;8.27;;
44987;SDS011;35735;52.226;21.254;2024-02-14T11:18:28;12.60;;;5.40;;
44987;SDS011;35735;52.226;21.254;2024-02-14T11:23:30;22.60;;;12.80;;
44987;SDS011;35735;52.226;21.254;2024-02-14T11:28:32;11.35;;;6.50;;
44987;SDS011;35735;52.226;21.254;2024-02-14T11:33:38;8.70;;;4.60;;
44987;SDS011;35735;52.226;21.254;2024-02-14T11:38:40;15.20;;;6.95;;
44987;SDS011;35735;52.226;21.254;2024-02-14T11:43:50;26.00;;;12.13;;
44987;SDS011;35735;52.226;21.254;2024-02-14T11:48:52;13.43;;;5.85;;
44987;SDS011;35735;52.226;21.254;2024-02-14T11:53:53;16.80;;;7.47;;
44987;SDS011;35735;52.226;21.254;2024-02-14T11:58:55;14.30;;;5.57;;
44987;SDS011;35735;52.226;21.254;2024-02-14T12:03:57;7.22;;;4.55;;
44987;SDS011;35735;52.226;21.254;2024-02-14T12:09:01;10.25;;;5.10;;
44987;SDS011;35735;52.226;21.254;2024-02-14T12:14:03;11.63;;;6.15;;
44987;SDS011;35735;52.226;21.254;2024-02-14T12:19:13;7.56;;;3.88;;
44987;SDS011;35735;52.226;21.254;2024-02-14T12:24:16;10.07;;;4.37;;
44987;SDS011;35735;52.226;21.254;2024-02-14T12:29:18;8.37;;;5.40;;
44987;SDS011;35735;52.226;21.254;2024-02-14T12:34:19;9.73;;;5.37;;
44987;SDS011;35735;52.226;21.254;2024-02-14T12:39:20;13.10;;;7.00;;
44987;SDS011;35735;52.226;21.254;2024-02-14T12:44:22;9.30;;;4.57;;
44987;SDS011;35735;52.226;21.254;2024-02-14T12:49:23;6.53;;;4.03;;
44987;SDS011;35735;52.226;21.254;2024-02-14T12:54:24;6.47;;;3.37;;
44987;SDS011;35735;52.226;21.254;2024-02-14T12:59:26;11.05;;;6.10;;
44987;SDS011;35735;52.226;21.254;2024-02-14T13:04:27;7.50;;;4.07;;
44987;SDS011;35735;52.226;21.254;2024-02-14T13:09:28;10.33;;;5.83;;
44987;SDS011;35735;52.226;21.254;2024-02-14T13:14:29;66.72;;;32.55;;
44987;SDS011;35735;52.226;21.254;2024-02-14T13:19:31;11.10;;;4.93;;
44987;SDS011;35735;52.226;21.254;2024-02-14T13:24:32;8.07;;;3.83;;
44987;SDS011;35735;52.226;21.254;2024-02-14T13:29:33;11.20;;;6.10;;
44987;SDS011;35735;52.226;21.254;2024-02-14T13:34:35;13.27;;;8.18;;
44987;SDS011;35735;52.226;21.254;2024-02-14T13:39:36;6.23;;;3.37;;
44987;SDS011;35735;52.226;21.254;2024-02-14T13:44:37;10.07;;;5.60;;
44987;SDS011;35735;52.226;21.254;2024-02-14T13:49:39;8.45;;;4.93;;
44987;SDS011;35735;52.226;21.254;2024-02-14T13:54:40;11.67;;;4.03;;
44987;SDS011;35735;52.226;21.254;2024-02-14T13:59:42;6.43;;;4.15;;
44987;SDS011;35735;52.226;21.254;2024-02-14T14:04:43;6.60;;;3.30;;
44987;SDS011;35735;52.226;21.254;2024-02-14T14:09:44;5.25;;;3.45;;
44987;SDS011;35735;52.226;21.254;2024-02-14T14:14:46;6.72;;;3.53;;
44987;SDS011;35735;52.226;21.254;2024-02-14T14:19:47;9.85;;;4.18;;
44987;SDS011;35735;52.226;21.254;2024-02-14T14:24:49;4.78;;;2.80;;
44987;SDS011;35735;52.226;21.254;2024-02-14T14:29:51;6.80;;;3.60;;
44987;SDS011;35735;52.226;21.254;2024-02-14T14:34:52;8.43;;;3.20;;
44987;SDS011;35735;52.226;21.254;2024-02-14T14:39:53;7.22;;;2.85;;
44987;SDS011;35735;52.226;21.254;2024-02-14T14:44:55;6.10;;;3.20;;
44987;SDS011;35735;52.226;21.254;2024-02-14T14:49:56;9.60;;;3.15;;
44987;SDS011;35735;52.226;21.254;2024-02-14T14:54:58;6.60;;;2.60;;
44987;SDS011;35735;52.226;21.254;2024-02-14T14:59:59;10.68;;;2.95;;
44987;SDS011;35735;52.226;21.254;2024-02-14T15:05:00;4.43;;;2.50;;
44987;SDS011;35735;52.226;21.254;2024-02-14T15:10:02;6.82;;;2.45;;
44987;SDS011;35735;52.226;21.254;2024-02-14T15:15:04;9.65;;;3.05;;
44987;SDS011;35735;52.226;21.254;2024-02-14T15:20:06;13.18;;;3.12;;
44987;SDS011;35735;52.226;21.254;2024-02-14T15:25:08;6.37;;;2.70;;
44987;SDS011;35735;52.226;21.254;2024-02-14T15:30:09;8.02;;;3.00;;
44987;SDS011;35735;52.226;21.254;2024-02-14T15:35:11;8.63;;;3.20;;
44987;SDS011;35735;52.226;21.254;2024-02-14T15:40:13;6.55;;;3.80;;
44987;SDS011;35735;52.226;21.254;2024-02-14T15:45:14;4.40;;;3.15;;
44987;SDS011;35735;52.226;21.254;2024-02-14T15:50:15;7.73;;;3.30;;
44987;SDS011;35735;52.226;21.254;2024-02-14T15:55:16;8.43;;;3.57;;
44987;SDS011;35735;52.226;21.254;2024-02-14T16:00:18;14.23;;;5.32;;
44987;SDS011;35735;52.226;21.254;2024-02-14T16:05:22;19.67;;;7.73;;
44987;SDS011;35735;52.226;21.254;2024-02-14T16:10:23;23.60;;;8.27;;
44987;SDS011;35735;52.226;21.254;2024-02-14T16:15:25;22.15;;;9.23;;
44987;SDS011;35735;52.226;21.254;2024-02-14T16:20:26;21.08;;;9.90;;
44987;SDS011;35735;52.226;21.254;2024-02-14T16:25:28;22.67;;;10.82;;
44987;SDS011;35735;52.226;21.254;2024-02-14T16:30:29;19.17;;;8.80;;
44987;SDS011;35735;52.226;21.254;2024-02-14T16:35:30;20.50;;;10.10;;
44987;SDS011;35735;52.226;21.254;2024-02-14T16:40:32;24.90;;;12.00;;
44987;SDS011;35735;52.226;21.254;2024-02-14T16:45:33;26.85;;;13.07;;
44987;SDS011;35735;52.226;21.254;2024-02-14T16:50:34;35.20;;;14.65;;
44987;SDS011;35735;52.226;21.254;2024-02-14T16:55:36;31.07;;;15.13;;
44987;SDS011;35735;52.226;21.254;2024-02-14T17:00:37;36.73;;;16.73;;
44987;SDS011;35735;52.226;21.254;2024-02-14T17:05:38;44.92;;;22.05;;
44987;SDS011;35735;52.226;21.254;2024-02-14T17:10:40;93.55;;;39.35;;
44987;SDS011;35735;52.226;21.254;2024-02-14T17:15:41;114.72;;;46.55;;
44987;SDS011;35735;52.226;21.254;2024-02-14T17:20:42;64.50;;;26.60;;
44987;SDS011;35735;52.226;21.254;2024-02-14T17:25:43;57.50;;;26.62;;
44987;SDS011;35735;52.226;21.254;2024-02-14T17:30:45;70.68;;;30.17;;
44987;SDS011;35735;52.226;21.254;2024-02-14T17:35:46;66.20;;;29.15;;
44987;SDS011;35735;52.226;21.254;2024-02-14T17:40:48;64.60;;;29.87;;
44987;SDS011;35735;52.226;21.254;2024-02-14T17:45:49;63.83;;;30.62;;
44987;SDS011;35735;52.226;21.254;2024-02-14T17:50:51;64.00;;;30.52;;
44987;SDS011;35735;52.226;21.254;2024-02-14T17:55:52;52.28;;;26.90;;
44987;SDS011;35735;52.226;21.254;2024-02-14T18:00:54;44.77;;;24.57;;
44987;SDS011;35735;52.226;21.254;2024-02-14T18:05:55;47.03;;;23.50;;
44987;SDS011;35735;52.226;21.254;2024-02-14T18:10:57;44.28;;;23.70;;
44987;SDS011;35735;52.226;21.254;2024-02-14T18:15:58;44.63;;;24.80;;
44987;SDS011;35735;52.226;21.254;2024-02-14T18:20:59;46.55;;;24.35;;
44987;SDS011;35735;52.226;21.254;2024-02-14T18:26:00;44.20;;;26.07;;
44987;SDS011;35735;52.226;21.254;2024-02-14T18:31:03;47.67;;;28.87;;
44987;SDS011;35735;52.226;21.254;2024-02-14T18:36:04;52.15;;;30.55;;
44987;SDS011;35735;52.226;21.254;2024-02-14T18:41:06;57.05;;;31.85;;
44987;SDS011;35735;52.226;21.254;2024-02-14T18:46:07;52.67;;;30.50;;
44987;SDS011;35735;52.226;21.254;2024-02-14T18:51:08;46.27;;;29.03;;
44987;SDS011;35735;52.226;21.254;2024-02-14T18:56:10;51.45;;;27.58;;
44987;SDS011;35735;52.226;21.254;2024-02-14T19:01:11;43.67;;;26.30;;
44987;SDS011;35735;52.226;21.254;2024-02-14T19:06:12;46.33;;;25.23;;
44987;SDS011;35735;52.226;21.254;2024-02-14T19:11:14;37.03;;;21.35;;
44987;SDS011;35735;52.226;21.254;2024-02-14T19:16:15;30.50;;;17.08;;
44987;SDS011;35735;52.226;21.254;2024-02-14T19:21:16;28.73;;;16.83;;
44987;SDS011;35735;52.226;21.254;2024-02-14T19:26:18;21.85;;;12.52;;
44987;SDS011;35735;52.226;21.254;2024-02-14T19:31:19;20.10;;;11.10;;
44987;SDS011;35735;52.226;21.254;2024-02-14T19:36:20;16.67;;;9.07;;
44987;SDS011;35735;52.226;21.254;2024-02-14T19:41:22;13.95;;;8.30;;
44987;SDS011;35735;52.226;21.254;2024-02-14T19:46:23;13.88;;;6.45;;
44987;SDS011;35735;52.226;21.254;2024-02-14T19:51:24;10.23;;;6.28;;
44987;SDS011;35735;52.226;21.254;2024-02-14T19:56:26;10.15;;;5.93;;
44987;SDS011;35735;52.226;21.254;2024-02-14T20:01:27;12.18;;;6.57;;
44987;SDS011;35735;52.226;21.254;2024-02-14T20:06:28;9.95;;;5.68;;
44987;SDS011;35735;52.226;21.254;2024-02-14T20:11:30;12.00;;;6.15;;
44987;SDS011;35735;52.226;21.254;2024-02-14T20:16:31;11.38;;;6.20;;
44987;SDS011;35735;52.226;21.254;2024-02-14T20:21:33;9.40;;;5.65;;
44987;SDS011;35735;52.226;21.254;2024-02-14T20:26:34;9.77;;;5.62;;
44987;SDS011;35735;52.226;21.254;2024-02-14T20:31:36;9.10;;;5.00;;
44987;SDS011;35735;52.226;21.254;2024-02-14T20:36:37;10.38;;;5.57;;
44987;SDS011;35735;52.226;21.254;2024-02-14T20:41:38;10.57;;;5.63;;
44987;SDS011;35735;52.226;21.254;2024-02-14T20:46:40;9.50;;;5.80;;
44987;SDS011;35735;52.226;21.254;2024-02-14T20:51:41;11.12;;;6.00;;
44987;SDS011;35735;52.226;21.254;2024-02-14T20:56:42;12.70;;;5.83;;
44987;SDS011;35735;52.226;21.254;2024-02-14T21:01:43;12.27;;;6.57;;
44987;SDS011;35735;52.226;21.254;2024-02-14T21:06:45;9.32;;;5.10;;
44987;SDS011;35735;52.226;21.254;2024-02-14T21:11:46;9.82;;;6.10;;
44987;SDS011;35735;52.226;21.254;2024-02-14T21:16:47;14.85;;;6.43;;
44987;SDS011;35735;52.226;21.254;2024-02-14T21:21:49;10.07;;;5.90;;
44987;SDS011;35735;52.226;21.254;2024-02-14T21:26:50;11.70;;;5.68;;
44987;SDS011;35735;52.226;21.254;2024-02-14T21:31:51;12.25;;;6.05;;
44987;SDS011;35735;52.226;21.254;2024-02-14T21:36:53;12.35;;;6.10;;
44987;SDS011;35735;52.226;21.254;2024-02-14T21:41:54;10.23;;;5.65;;
44987;SDS011;35735;52.226;21.254;2024-02-14T21:46:55;9.13;;;4.93;;
44987;SDS011;35735;52.226;21.254;2024-02-14T21:51:57;9.33;;;5.43;;
44987;SDS011;35735;52.226;21.254;2024-02-14T21:56:59;10.98;;;5.75;;
44987;SDS011;35735;52.226;21.254;2024-02-14T22:02:01;8.40;;;5.22;;
44987;SDS011;35735;52.226;21.254;2024-02-14T22:07:02;10.73;;;5.70;;
44987;SDS011;35735;52.226;21.254;2024-02-14T22:12:06;12.13;;;5.95;;
44987;SDS011;35735;52.226;21.254;2024-02-14T22:17:08;11.95;;;5.87;;
44987;SDS011;35735;52.226;21.254;2024-02-14T22:22:09;12.77;;;6.07;;
44987;SDS011;35735;52.226;21.254;2024-02-14T22:27:11;11.33;;;5.90;;
44987;SDS011;35735;52.226;21.254;2024-02-14T22:32:13;11.80;;;5.77;;
44987;SDS011;35735;52.226;21.254;2024-02-14T22:37:14;13.43;;;6.07;;
44987;SDS011;35735;52.226;21.254;2024-02-14T22:42:15;12.30;;;5.80;;
44987;SDS011;35735;52.226;21.254;2024-02-14T22:47:17;9.20;;;5.47;;
44987;SDS011;35735;52.226;21.254;2024-02-14T22:52:18;12.57;;;5.60;;
44987;SDS011;35735;52.226;21.254;2024-02-14T22:57:19;9.17;;;5.33;;
44987;SDS011;35735;52.226;21.254;2024-02-14T23:02:20;9.55;;;5.62;;
44987;SDS011;35735;52.226;21.254;2024-02-14T23:07:22;9.43;;;5.70;;
44987;SDS011;35735;52.226;21.254;2024-02-14T23:12:23;11.63;;;5.97;;
44987;SDS011;35735;52.226;21.254;2024-02-14T23:17:24;10.25;;;5.80;;
44987;SDS011;35735;52.226;21.254;2024-02-14T23:22:26;10.68;;;5.78;;
44987;SDS011;35735;52.226;21.254;2024-02-14T23:27:27;9.68;;;5.47;;
44987;SDS011;35735;52.226;21.254;2024-02-14T23:32:28;8.18;;;5.50;;
44987;SDS011;35735;52.226;21.254;2024-02-14T23:37:30;10.33;;;6.03;;
44987;SDS011;35735;52.226;21.254;2024-02-14T23:42:31;8.75;;;5.47;;
44987;SDS011;35735;52.226;21.254;2024-02-14T23:47:33;11.00;;;6.12;;
44987;SDS011;35735;52.226;21.254;2024-02-14T23:52:34;12.35;;;5.68;;
44987;SDS011;35735;52.226;21.254;2024-02-14T23:57:36;13.68;;;5.90;;
